sensor_id;sensor_type;location;lat;lon;timestamp;P1;durP1;ratioP1;P2;durP2;ratioP2
79308;SDS011;68767;53.078;7.386;2023-04-01T00:01:05;19.73;;;8.70;;
79308;SDS011;68767;53.078;7.386;2023-04-01T00:03:33;24.50;;;8.95;;
79308;SDS011;68767;53.078;7.386;2023-04-01T00:06:00;19.35;;;8.93;;
79308;SDS011;68767;53.078;7.386;2023-04-01T00:08:27;27.25;;;8.90;;
79308;SDS011;68767;53.078;7.386;2023-04-01T00:10:55;19.23;;;8.57;;
79308;SDS011;68767;53.078;7.386;2023-04-01T00:13:24;17.05;;;8.82;;
79308;SDS011;68767;53.078;7.386;2023-04-01T00:15:53;24.23;;;9.68;;
79308;SDS011;68767;53.078;7.386;2023-04-01T00:18:22;21.35;;;8.85;;
79308;SDS011;68767;53.078;7.386;2023-04-01T00:20:49;20.52;;;9.40;;
79308;SDS011;68767;53.078;7.386;2023-04-01T00:23:18;18.35;;;9.35;;
79308;SDS011;68767;53.078;7.386;2023-04-01T00:25:46;22.50;;;11.40;;
79308;SDS011;68767;53.078;7.386;2023-04-01T00:28:17;23.25;;;12.23;;
79308;SDS011;68767;53.078;7.386;2023-04-01T00:30:45;34.83;;;13.98;;
79308;SDS011;68767;53.078;7.386;2023-04-01T00:33:12;32.50;;;14.43;;
79308;SDS011;68767;53.078;7.386;2023-04-01T00:35:39;28.70;;;14.15;;
79308;SDS011;68767;53.078;7.386;2023-04-01T00:38:06;29.20;;;13.15;;
79308;SDS011;68767;53.078;7.386;2023-04-01T00:40:35;26.98;;;11.68;;
79308;SDS011;68767;53.078;7.386;2023-04-01T00:43:12;22.38;;;10.50;;
79308;SDS011;68767;53.078;7.386;2023-04-01T00:45:41;23.83;;;10.82;;
79308;SDS011;68767;53.078;7.386;2023-04-01T00:48:19;22.83;;;10.77;;
79308;SDS011;68767;53.078;7.386;2023-04-01T00:50:52;20.27;;;9.73;;
79308;SDS011;68767;53.078;7.386;2023-04-01T00:53:32;25.13;;;9.43;;
79308;SDS011;68767;53.078;7.386;2023-04-01T00:56:04;20.23;;;10.10;;
79308;SDS011;68767;53.078;7.386;2023-04-01T00:58:37;20.73;;;10.20;;
79308;SDS011;68767;53.078;7.386;2023-04-01T01:01:08;20.20;;;10.70;;
79308;SDS011;68767;53.078;7.386;2023-04-01T01:03:36;20.23;;;10.15;;
79308;SDS011;68767;53.078;7.386;2023-04-01T01:22:55;22.40;;;11.80;;
79308;SDS011;68767;53.078;7.386;2023-04-01T01:25:56;25.30;;;12.32;;
79308;SDS011;68767;53.078;7.386;2023-04-01T01:34:19;29.63;;;12.57;;
79308;SDS011;68767;53.078;7.386;2023-04-01T01:36:55;25.77;;;12.27;;
79308;SDS011;68767;53.078;7.386;2023-04-01T01:39:29;24.92;;;11.98;;
79308;SDS011;68767;53.078;7.386;2023-04-01T01:41:59;30.23;;;13.25;;
79308;SDS011;68767;53.078;7.386;2023-04-01T01:44:30;26.20;;;12.18;;
79308;SDS011;68767;53.078;7.386;2023-04-01T01:46:58;29.50;;;12.57;;
79308;SDS011;68767;53.078;7.386;2023-04-01T01:49:27;28.80;;;13.52;;
79308;SDS011;68767;53.078;7.386;2023-04-01T01:51:56;28.67;;;13.15;;
79308;SDS011;68767;53.078;7.386;2023-04-01T01:54:24;33.63;;;13.90;;
79308;SDS011;68767;53.078;7.386;2023-04-01T01:56:51;23.92;;;11.75;;
79308;SDS011;68767;53.078;7.386;2023-04-01T01:59:26;24.38;;;12.38;;
79308;SDS011;68767;53.078;7.386;2023-04-01T02:01:54;29.58;;;14.13;;
79308;SDS011;68767;53.078;7.386;2023-04-01T02:04:23;40.05;;;15.73;;
79308;SDS011;68767;53.078;7.386;2023-04-01T02:06:55;25.95;;;13.55;;
79308;SDS011;68767;53.078;7.386;2023-04-01T02:09:26;26.17;;;12.95;;
79308;SDS011;68767;53.078;7.386;2023-04-01T02:12:01;24.90;;;12.70;;
79308;SDS011;68767;53.078;7.386;2023-04-01T02:17:20;30.13;;;14.20;;
79308;SDS011;68767;53.078;7.386;2023-04-01T02:19:53;28.08;;;13.32;;
79308;SDS011;68767;53.078;7.386;2023-04-01T02:22:24;26.63;;;12.45;;
79308;SDS011;68767;53.078;7.386;2023-04-01T02:24:54;25.10;;;12.80;;
79308;SDS011;68767;53.078;7.386;2023-04-01T02:27:28;24.98;;;12.52;;
79308;SDS011;68767;53.078;7.386;2023-04-01T02:29:57;24.50;;;12.75;;
79308;SDS011;68767;53.078;7.386;2023-04-01T02:32:24;23.73;;;12.85;;
79308;SDS011;68767;53.078;7.386;2023-04-01T02:34:53;25.60;;;13.55;;
79308;SDS011;68767;53.078;7.386;2023-04-01T02:37:20;25.67;;;14.45;;
79308;SDS011;68767;53.078;7.386;2023-04-01T02:39:47;26.98;;;13.55;;
79308;SDS011;68767;53.078;7.386;2023-04-01T02:42:14;28.80;;;14.07;;
79308;SDS011;68767;53.078;7.386;2023-04-01T02:44:40;25.95;;;12.52;;
79308;SDS011;68767;53.078;7.386;2023-04-01T02:47:07;32.80;;;14.52;;
79308;SDS011;68767;53.078;7.386;2023-04-01T02:49:34;26.65;;;12.77;;
79308;SDS011;68767;53.078;7.386;2023-04-01T02:52:01;26.98;;;13.38;;
79308;SDS011;68767;53.078;7.386;2023-04-01T02:54:28;29.30;;;12.68;;
79308;SDS011;68767;53.078;7.386;2023-04-01T02:56:54;25.33;;;13.38;;
79308;SDS011;68767;53.078;7.386;2023-04-01T02:59:21;25.55;;;13.75;;
79308;SDS011;68767;53.078;7.386;2023-04-01T03:01:48;27.58;;;13.25;;
79308;SDS011;68767;53.078;7.386;2023-04-01T03:04:15;23.25;;;11.70;;
79308;SDS011;68767;53.078;7.386;2023-04-01T03:06:41;23.42;;;11.95;;
79308;SDS011;68767;53.078;7.386;2023-04-01T03:09:08;22.70;;;11.73;;
79308;SDS011;68767;53.078;7.386;2023-04-01T03:11:35;24.75;;;12.18;;
79308;SDS011;68767;53.078;7.386;2023-04-01T03:14:02;29.67;;;12.90;;
79308;SDS011;68767;53.078;7.386;2023-04-01T03:16:28;27.60;;;12.63;;
79308;SDS011;68767;53.078;7.386;2023-04-01T03:18:55;31.85;;;14.82;;
79308;SDS011;68767;53.078;7.386;2023-04-01T03:21:25;33.15;;;14.70;;
79308;SDS011;68767;53.078;7.386;2023-04-01T03:23:52;30.42;;;13.95;;
79308;SDS011;68767;53.078;7.386;2023-04-01T03:26:19;26.73;;;13.73;;
79308;SDS011;68767;53.078;7.386;2023-04-01T03:28:46;28.05;;;12.43;;
79308;SDS011;68767;53.078;7.386;2023-04-01T03:31:12;34.67;;;14.75;;
79308;SDS011;68767;53.078;7.386;2023-04-01T03:33:39;29.35;;;13.95;;
79308;SDS011;68767;53.078;7.386;2023-04-01T03:36:06;30.17;;;13.90;;
79308;SDS011;68767;53.078;7.386;2023-04-01T03:38:34;32.85;;;14.40;;
79308;SDS011;68767;53.078;7.386;2023-04-01T03:41:01;32.78;;;13.52;;
79308;SDS011;68767;53.078;7.386;2023-04-01T03:43:28;31.95;;;14.07;;
79308;SDS011;68767;53.078;7.386;2023-04-01T03:45:55;28.55;;;12.73;;
79308;SDS011;68767;53.078;7.386;2023-04-01T03:48:24;26.15;;;12.75;;
79308;SDS011;68767;53.078;7.386;2023-04-01T03:50:52;28.15;;;13.82;;
79308;SDS011;68767;53.078;7.386;2023-04-01T03:53:18;27.27;;;12.90;;
79308;SDS011;68767;53.078;7.386;2023-04-01T03:55:46;35.20;;;14.02;;
79308;SDS011;68767;53.078;7.386;2023-04-01T03:58:13;25.75;;;12.77;;
79308;SDS011;68767;53.078;7.386;2023-04-01T04:00:40;28.13;;;13.50;;
79308;SDS011;68767;53.078;7.386;2023-04-01T04:03:07;27.50;;;13.32;;
79308;SDS011;68767;53.078;7.386;2023-04-01T04:05:33;39.45;;;14.20;;
79308;SDS011;68767;53.078;7.386;2023-04-01T04:08:01;27.58;;;13.45;;
79308;SDS011;68767;53.078;7.386;2023-04-01T04:10:29;27.00;;;12.57;;
79308;SDS011;68767;53.078;7.386;2023-04-01T04:12:55;29.40;;;14.52;;
79308;SDS011;68767;53.078;7.386;2023-04-01T04:15:23;29.60;;;14.20;;
79308;SDS011;68767;53.078;7.386;2023-04-01T04:17:49;27.15;;;13.23;;
79308;SDS011;68767;53.078;7.386;2023-04-01T04:20:16;27.02;;;13.50;;
79308;SDS011;68767;53.078;7.386;2023-04-01T04:22:43;31.20;;;13.60;;
79308;SDS011;68767;53.078;7.386;2023-04-01T04:25:10;31.75;;;14.43;;
79308;SDS011;68767;53.078;7.386;2023-04-01T04:27:36;31.67;;;14.43;;
79308;SDS011;68767;53.078;7.386;2023-04-01T04:30:04;29.05;;;15.25;;
79308;SDS011;68767;53.078;7.386;2023-04-01T04:32:32;30.63;;;14.70;;
79308;SDS011;68767;53.078;7.386;2023-04-01T04:34:58;36.13;;;16.20;;
79308;SDS011;68767;53.078;7.386;2023-04-01T04:37:25;35.10;;;15.20;;
79308;SDS011;68767;53.078;7.386;2023-04-01T04:39:52;33.30;;;15.18;;
79308;SDS011;68767;53.078;7.386;2023-04-01T04:42:19;33.88;;;15.88;;
79308;SDS011;68767;53.078;7.386;2023-04-01T04:44:45;36.17;;;15.23;;
79308;SDS011;68767;53.078;7.386;2023-04-01T04:47:12;36.22;;;16.05;;
79308;SDS011;68767;53.078;7.386;2023-04-01T04:49:39;34.33;;;16.33;;
79308;SDS011;68767;53.078;7.386;2023-04-01T04:52:06;30.85;;;14.60;;
79308;SDS011;68767;53.078;7.386;2023-04-01T04:54:33;31.67;;;15.48;;
79308;SDS011;68767;53.078;7.386;2023-04-01T04:57:00;32.72;;;14.25;;
79308;SDS011;68767;53.078;7.386;2023-04-01T04:59:26;34.55;;;15.15;;
79308;SDS011;68767;53.078;7.386;2023-04-01T05:01:53;34.15;;;16.63;;
79308;SDS011;68767;53.078;7.386;2023-04-01T05:04:20;48.80;;;15.57;;
79308;SDS011;68767;53.078;7.386;2023-04-01T05:06:46;30.92;;;14.45;;
79308;SDS011;68767;53.078;7.386;2023-04-01T05:09:13;32.70;;;14.60;;
79308;SDS011;68767;53.078;7.386;2023-04-01T05:11:41;34.45;;;15.50;;
79308;SDS011;68767;53.078;7.386;2023-04-01T05:14:14;36.85;;;14.57;;
79308;SDS011;68767;53.078;7.386;2023-04-01T05:16:42;35.38;;;14.75;;
79308;SDS011;68767;53.078;7.386;2023-04-01T05:19:08;35.58;;;15.05;;
79308;SDS011;68767;53.078;7.386;2023-04-01T05:21:35;32.15;;;14.60;;
79308;SDS011;68767;53.078;7.386;2023-04-01T05:24:02;34.28;;;15.38;;
79308;SDS011;68767;53.078;7.386;2023-04-01T05:26:29;36.40;;;15.30;;
79308;SDS011;68767;53.078;7.386;2023-04-01T05:28:56;37.25;;;15.05;;
79308;SDS011;68767;53.078;7.386;2023-04-01T05:31:23;34.75;;;14.82;;
79308;SDS011;68767;53.078;7.386;2023-04-01T05:33:50;31.85;;;14.43;;
79308;SDS011;68767;53.078;7.386;2023-04-01T05:36:17;33.40;;;14.90;;
79308;SDS011;68767;53.078;7.386;2023-04-01T05:38:44;33.28;;;15.48;;
79308;SDS011;68767;53.078;7.386;2023-04-01T05:41:12;33.15;;;15.55;;
79308;SDS011;68767;53.078;7.386;2023-04-01T05:43:40;37.25;;;16.52;;
79308;SDS011;68767;53.078;7.386;2023-04-01T05:46:08;33.42;;;15.30;;
79308;SDS011;68767;53.078;7.386;2023-04-01T05:48:35;31.25;;;14.45;;
79308;SDS011;68767;53.078;7.386;2023-04-01T05:51:02;30.70;;;14.57;;
79308;SDS011;68767;53.078;7.386;2023-04-01T05:53:30;28.90;;;14.68;;
79308;SDS011;68767;53.078;7.386;2023-04-01T05:55:56;29.00;;;14.05;;
79308;SDS011;68767;53.078;7.386;2023-04-01T05:58:27;36.63;;;14.50;;
79308;SDS011;68767;53.078;7.386;2023-04-01T06:00:59;29.02;;;14.63;;
79308;SDS011;68767;53.078;7.386;2023-04-01T06:03:37;30.23;;;13.60;;
79308;SDS011;68767;53.078;7.386;2023-04-01T06:06:04;31.73;;;13.68;;
79308;SDS011;68767;53.078;7.386;2023-04-01T06:08:39;29.27;;;12.30;;
79308;SDS011;68767;53.078;7.386;2023-04-01T06:11:12;31.98;;;13.35;;
79308;SDS011;68767;53.078;7.386;2023-04-01T06:14:00;29.65;;;13.30;;
79308;SDS011;68767;53.078;7.386;2023-04-01T06:16:38;35.10;;;15.05;;
79308;SDS011;68767;53.078;7.386;2023-04-01T06:21:55;27.45;;;13.18;;
79308;SDS011;68767;53.078;7.386;2023-04-01T06:33:20;24.08;;;11.70;;
79308;SDS011;68767;53.078;7.386;2023-04-01T06:38:41;25.92;;;12.60;;
79308;SDS011;68767;53.078;7.386;2023-04-01T06:46:47;29.45;;;13.50;;
79308;SDS011;68767;53.078;7.386;2023-04-01T06:55:12;26.42;;;11.50;;
79308;SDS011;68767;53.078;7.386;2023-04-01T06:57:42;29.20;;;12.73;;
79308;SDS011;68767;53.078;7.386;2023-04-01T07:00:14;27.98;;;13.55;;
79308;SDS011;68767;53.078;7.386;2023-04-01T07:03:00;25.20;;;10.95;;
79308;SDS011;68767;53.078;7.386;2023-04-01T07:05:42;26.38;;;12.07;;
79308;SDS011;68767;53.078;7.386;2023-04-01T07:08:11;29.67;;;12.23;;
79308;SDS011;68767;53.078;7.386;2023-04-01T07:10:53;26.63;;;11.30;;
79308;SDS011;68767;53.078;7.386;2023-04-01T07:13:27;28.30;;;12.70;;
79308;SDS011;68767;53.078;7.386;2023-04-01T07:18:37;22.67;;;10.93;;
79308;SDS011;68767;53.078;7.386;2023-04-01T07:21:44;22.75;;;11.40;;
79308;SDS011;68767;53.078;7.386;2023-04-01T07:24:11;22.85;;;10.77;;
79308;SDS011;68767;53.078;7.386;2023-04-01T07:26:45;26.95;;;11.13;;
79308;SDS011;68767;53.078;7.386;2023-04-01T07:29:21;23.98;;;10.55;;
79308;SDS011;68767;53.078;7.386;2023-04-01T07:37:24;24.20;;;11.70;;
79308;SDS011;68767;53.078;7.386;2023-04-01T07:42:57;20.48;;;10.45;;
79308;SDS011;68767;53.078;7.386;2023-04-01T07:48:43;22.08;;;10.70;;
79308;SDS011;68767;53.078;7.386;2023-04-01T08:01:44;20.60;;;10.02;;
79308;SDS011;68767;53.078;7.386;2023-04-01T08:04:55;20.08;;;9.75;;
79308;SDS011;68767;53.078;7.386;2023-04-01T08:07:41;22.85;;;10.85;;
79308;SDS011;68767;53.078;7.386;2023-04-01T08:21:04;21.73;;;10.63;;
79308;SDS011;68767;53.078;7.386;2023-04-01T08:23:37;21.20;;;10.02;;
79308;SDS011;68767;53.078;7.386;2023-04-01T08:26:28;21.42;;;10.07;;
79308;SDS011;68767;53.078;7.386;2023-04-01T08:31:37;21.48;;;9.77;;
79308;SDS011;68767;53.078;7.386;2023-04-01T08:34:17;20.85;;;9.82;;
79308;SDS011;68767;53.078;7.386;2023-04-01T08:36:59;17.83;;;8.00;;
79308;SDS011;68767;53.078;7.386;2023-04-01T08:45:42;23.00;;;10.77;;
79308;SDS011;68767;53.078;7.386;2023-04-01T08:56:47;20.17;;;9.35;;
79308;SDS011;68767;53.078;7.386;2023-04-01T09:21:45;9.90;;;4.80;;
79308;SDS011;68767;53.078;7.386;2023-04-01T09:35:39;7.40;;;4.78;;
79308;SDS011;68767;53.078;7.386;2023-04-01T09:44:17;8.63;;;4.15;;
79308;SDS011;68767;53.078;7.386;2023-04-01T09:47:14;9.63;;;4.47;;
79308;SDS011;68767;53.078;7.386;2023-04-01T09:50:03;8.80;;;4.95;;
79308;SDS011;68767;53.078;7.386;2023-04-01T09:58:22;8.98;;;4.82;;
79308;SDS011;68767;53.078;7.386;2023-04-01T10:04:17;7.55;;;3.85;;
79308;SDS011;68767;53.078;7.386;2023-04-01T10:26:22;4.75;;;2.35;;
79308;SDS011;68767;53.078;7.386;2023-04-01T11:12:11;3.97;;;2.30;;
79308;SDS011;68767;53.078;7.386;2023-04-01T11:34:48;4.95;;;2.30;;
79308;SDS011;68767;53.078;7.386;2023-04-01T11:43:16;4.55;;;2.53;;
79308;SDS011;68767;53.078;7.386;2023-04-01T11:54:19;4.80;;;2.80;;
79308;SDS011;68767;53.078;7.386;2023-04-01T12:05:28;7.85;;;3.10;;
79308;SDS011;68767;53.078;7.386;2023-04-01T12:08:31;4.95;;;2.80;;
79308;SDS011;68767;53.078;7.386;2023-04-01T12:11:22;4.68;;;2.72;;
79308;SDS011;68767;53.078;7.386;2023-04-01T12:19:17;4.60;;;2.95;;
79308;SDS011;68767;53.078;7.386;2023-04-01T12:24:25;5.90;;;3.35;;
79308;SDS011;68767;53.078;7.386;2023-04-01T12:33:00;7.68;;;3.47;;
79308;SDS011;68767;53.078;7.386;2023-04-01T12:48:57;4.10;;;2.17;;
79308;SDS011;68767;53.078;7.386;2023-04-01T13:08:40;5.20;;;2.85;;
79308;SDS011;68767;53.078;7.386;2023-04-01T13:11:20;4.88;;;2.72;;
79308;SDS011;68767;53.078;7.386;2023-04-01T13:25:17;5.07;;;2.60;;
79308;SDS011;68767;53.078;7.386;2023-04-01T13:27:52;3.50;;;2.15;;
79308;SDS011;68767;53.078;7.386;2023-04-01T13:30:38;5.75;;;2.95;;
79308;SDS011;68767;53.078;7.386;2023-04-01T13:33:30;4.00;;;2.60;;
79308;SDS011;68767;53.078;7.386;2023-04-01T13:38:57;4.82;;;2.28;;
79308;SDS011;68767;53.078;7.386;2023-04-01T13:41:35;4.97;;;2.13;;
79308;SDS011;68767;53.078;7.386;2023-04-01T13:52:47;3.13;;;1.98;;
79308;SDS011;68767;53.078;7.386;2023-04-01T14:03:26;3.78;;;2.10;;
79308;SDS011;68767;53.078;7.386;2023-04-01T14:11:25;3.85;;;2.70;;
79308;SDS011;68767;53.078;7.386;2023-04-01T14:22:20;3.15;;;2.05;;
79308;SDS011;68767;53.078;7.386;2023-04-01T14:27:36;2.80;;;1.80;;
79308;SDS011;68767;53.078;7.386;2023-04-01T14:30:23;3.20;;;1.92;;
79308;SDS011;68767;53.078;7.386;2023-04-01T14:33:04;4.30;;;2.25;;
79308;SDS011;68767;53.078;7.386;2023-04-01T14:41:48;8.93;;;4.05;;
79308;SDS011;68767;53.078;7.386;2023-04-01T14:50:55;3.30;;;2.15;;
79308;SDS011;68767;53.078;7.386;2023-04-01T14:53:33;3.78;;;2.30;;
79308;SDS011;68767;53.078;7.386;2023-04-01T14:56:05;4.70;;;2.60;;
79308;SDS011;68767;53.078;7.386;2023-04-01T14:58:50;3.00;;;1.90;;
79308;SDS011;68767;53.078;7.386;2023-04-01T15:07:31;3.75;;;2.15;;
79308;SDS011;68767;53.078;7.386;2023-04-01T15:13:16;3.72;;;1.92;;
79308;SDS011;68767;53.078;7.386;2023-04-01T15:16:01;3.60;;;2.20;;
79308;SDS011;68767;53.078;7.386;2023-04-01T15:21:38;2.88;;;1.80;;
79308;SDS011;68767;53.078;7.386;2023-04-01T15:24:35;4.65;;;2.28;;
79308;SDS011;68767;53.078;7.386;2023-04-01T15:27:18;3.78;;;2.33;;
79308;SDS011;68767;53.078;7.386;2023-04-01T15:30:13;4.25;;;2.28;;
79308;SDS011;68767;53.078;7.386;2023-04-01T15:41:28;4.88;;;2.78;;
79308;SDS011;68767;53.078;7.386;2023-04-01T15:47:33;3.15;;;2.10;;
79308;SDS011;68767;53.078;7.386;2023-04-01T15:50:21;5.00;;;2.75;;
79308;SDS011;68767;53.078;7.386;2023-04-01T15:56:25;4.70;;;1.83;;
79308;SDS011;68767;53.078;7.386;2023-04-01T16:01:18;4.70;;;2.72;;
79308;SDS011;68767;53.078;7.386;2023-04-01T16:03:51;6.40;;;2.63;;
79308;SDS011;68767;53.078;7.386;2023-04-01T16:14:52;5.07;;;2.95;;
79308;SDS011;68767;53.078;7.386;2023-04-01T16:30:37;5.45;;;3.30;;
79308;SDS011;68767;53.078;7.386;2023-04-01T16:33:12;7.05;;;3.50;;
79308;SDS011;68767;53.078;7.386;2023-04-01T16:38:56;9.38;;;4.28;;
79308;SDS011;68767;53.078;7.386;2023-04-01T16:41:51;6.32;;;3.60;;
79308;SDS011;68767;53.078;7.386;2023-04-01T16:46:50;11.57;;;5.10;;
79308;SDS011;68767;53.078;7.386;2023-04-01T16:49:24;10.80;;;4.50;;
79308;SDS011;68767;53.078;7.386;2023-04-01T16:55:20;10.80;;;4.38;;
79308;SDS011;68767;53.078;7.386;2023-04-01T16:57:52;13.32;;;5.10;;
79308;SDS011;68767;53.078;7.386;2023-04-01T17:00:27;8.60;;;4.82;;
79308;SDS011;68767;53.078;7.386;2023-04-01T17:03:17;10.75;;;5.22;;
79308;SDS011;68767;53.078;7.386;2023-04-01T17:11:20;9.85;;;5.40;;
79308;SDS011;68767;53.078;7.386;2023-04-01T17:14:03;8.73;;;4.93;;
79308;SDS011;68767;53.078;7.386;2023-04-01T17:30:38;10.23;;;4.60;;
79308;SDS011;68767;53.078;7.386;2023-04-01T17:39:01;10.85;;;4.03;;
79308;SDS011;68767;53.078;7.386;2023-04-01T17:57:44;11.80;;;4.85;;
79308;SDS011;68767;53.078;7.386;2023-04-01T18:00:19;10.63;;;5.90;;
79308;SDS011;68767;53.078;7.386;2023-04-01T18:11:16;18.80;;;6.38;;
79308;SDS011;68767;53.078;7.386;2023-04-01T18:21:56;12.95;;;6.38;;
79308;SDS011;68767;53.078;7.386;2023-04-01T18:24:30;11.45;;;5.15;;
79308;SDS011;68767;53.078;7.386;2023-04-01T18:27:12;13.77;;;6.13;;
79308;SDS011;68767;53.078;7.386;2023-04-01T18:29:47;11.90;;;5.22;;
79308;SDS011;68767;53.078;7.386;2023-04-01T18:34:53;14.15;;;5.68;;
79308;SDS011;68767;53.078;7.386;2023-04-01T18:37:28;12.23;;;6.47;;
79308;SDS011;68767;53.078;7.386;2023-04-01T18:54:11;6.68;;;3.95;;
79308;SDS011;68767;53.078;7.386;2023-04-01T18:56:46;15.75;;;6.00;;
79308;SDS011;68767;53.078;7.386;2023-04-01T18:59:27;9.13;;;4.70;;
79308;SDS011;68767;53.078;7.386;2023-04-01T19:02:29;10.50;;;4.72;;
79308;SDS011;68767;53.078;7.386;2023-04-01T19:07:47;9.48;;;4.22;;
79308;SDS011;68767;53.078;7.386;2023-04-01T19:26:47;15.57;;;5.88;;
79308;SDS011;68767;53.078;7.386;2023-04-01T19:37:36;12.25;;;5.38;;
79308;SDS011;68767;53.078;7.386;2023-04-01T19:56:54;12.85;;;6.25;;
79308;SDS011;68767;53.078;7.386;2023-04-01T19:59:42;18.20;;;7.30;;
79308;SDS011;68767;53.078;7.386;2023-04-01T20:05:00;15.48;;;5.80;;
79308;SDS011;68767;53.078;7.386;2023-04-01T20:07:43;16.50;;;5.85;;
79308;SDS011;68767;53.078;7.386;2023-04-01T20:10:22;12.30;;;5.80;;
79308;SDS011;68767;53.078;7.386;2023-04-01T20:15:55;14.57;;;5.45;;
79308;SDS011;68767;53.078;7.386;2023-04-01T20:26:43;11.65;;;5.18;;
79308;SDS011;68767;53.078;7.386;2023-04-01T20:40:51;12.73;;;6.03;;
79308;SDS011;68767;53.078;7.386;2023-04-01T20:51:54;16.27;;;6.30;;
79308;SDS011;68767;53.078;7.386;2023-04-01T20:54:44;9.13;;;4.65;;
79308;SDS011;68767;53.078;7.386;2023-04-01T21:02:56;13.02;;;5.70;;
79308;SDS011;68767;53.078;7.386;2023-04-01T21:08:08;13.18;;;5.78;;
79308;SDS011;68767;53.078;7.386;2023-04-01T21:10:56;13.00;;;5.30;;
79308;SDS011;68767;53.078;7.386;2023-04-01T21:22:56;10.05;;;4.53;;
79308;SDS011;68767;53.078;7.386;2023-04-01T21:41:38;13.02;;;4.85;;
79308;SDS011;68767;53.078;7.386;2023-04-01T22:04:27;11.13;;;4.13;;
79308;SDS011;68767;53.078;7.386;2023-04-01T22:07:02;9.32;;;4.70;;
79308;SDS011;68767;53.078;7.386;2023-04-01T22:09:41;9.43;;;4.18;;
79308;SDS011;68767;53.078;7.386;2023-04-01T22:15:23;9.50;;;3.70;;
79308;SDS011;68767;53.078;7.386;2023-04-01T22:18:35;7.25;;;3.33;;
79308;SDS011;68767;53.078;7.386;2023-04-01T22:21:29;7.20;;;4.32;;
79308;SDS011;68767;53.078;7.386;2023-04-01T22:24:56;9.00;;;4.30;;
79308;SDS011;68767;53.078;7.386;2023-04-01T22:41:13;11.00;;;4.30;;
79308;SDS011;68767;53.078;7.386;2023-04-01T22:43:50;9.43;;;4.32;;
79308;SDS011;68767;53.078;7.386;2023-04-01T22:48:54;7.65;;;3.85;;
79308;SDS011;68767;53.078;7.386;2023-04-01T22:51:48;10.65;;;3.95;;
79308;SDS011;68767;53.078;7.386;2023-04-01T22:55:04;8.68;;;3.80;;
79308;SDS011;68767;53.078;7.386;2023-04-01T22:57:28;7.65;;;3.35;;
79308;SDS011;68767;53.078;7.386;2023-04-01T23:00:12;8.57;;;3.50;;
79308;SDS011;68767;53.078;7.386;2023-04-01T23:02:47;10.38;;;2.80;;
79308;SDS011;68767;53.078;7.386;2023-04-01T23:05:15;10.30;;;4.32;;
79308;SDS011;68767;53.078;7.386;2023-04-01T23:07:48;8.32;;;3.90;;
79308;SDS011;68767;53.078;7.386;2023-04-01T23:10:30;12.70;;;4.38;;
79308;SDS011;68767;53.078;7.386;2023-04-01T23:13:10;10.68;;;4.13;;
79308;SDS011;68767;53.078;7.386;2023-04-01T23:15:42;10.50;;;4.35;;
79308;SDS011;68767;53.078;7.386;2023-04-01T23:26:21;13.90;;;3.55;;
79308;SDS011;68767;53.078;7.386;2023-04-01T23:28:56;7.22;;;3.35;;
79308;SDS011;68767;53.078;7.386;2023-04-01T23:34:00;6.43;;;3.38;;
79308;SDS011;68767;53.078;7.386;2023-04-01T23:36:49;9.38;;;3.70;;
79308;SDS011;68767;53.078;7.386;2023-04-01T23:44:52;7.68;;;3.22;;
79308;SDS011;68767;53.078;7.386;2023-04-01T23:47:22;13.88;;;3.42;;
79308;SDS011;68767;53.078;7.386;2023-04-01T23:49:53;7.93;;;3.17;;
79308;SDS011;68767;53.078;7.386;2023-04-01T23:52:35;8.20;;;2.97;;
79308;SDS011;68767;53.078;7.386;2023-04-01T23:57:36;5.53;;;2.50;;
